sensor_id;sensor_type;location;lat;lon;timestamp;P1;durP1;ratioP1;P2;durP2;ratioP2
6505;SDS011;3286;49.858;8.768;2023-11-21T00:01:44;3.73;;;1.37;;
6505;SDS011;3286;49.858;8.768;2023-11-21T00:04:10;5.07;;;1.60;;
6505;SDS011;3286;49.858;8.768;2023-11-21T00:06:37;3.53;;;1.23;;
6505;SDS011;3286;49.858;8.768;2023-11-21T00:09:05;3.70;;;1.30;;
6505;SDS011;3286;49.858;8.768;2023-11-21T00:11:33;2.97;;;1.50;;
6505;SDS011;3286;49.858;8.768;2023-11-21T00:14:00;5.47;;;1.40;;
6505;SDS011;3286;49.858;8.768;2023-11-21T00:16:27;1.67;;;1.40;;
6505;SDS011;3286;49.858;8.768;2023-11-21T00:18:53;2.10;;;1.50;;
6505;SDS011;3286;49.858;8.768;2023-11-21T00:21:20;2.33;;;1.50;;
6505;SDS011;3286;49.858;8.768;2023-11-21T00:23:47;3.57;;;1.30;;
6505;SDS011;3286;49.858;8.768;2023-11-21T00:26:15;5.90;;;1.60;;
6505;SDS011;3286;49.858;8.768;2023-11-21T00:28:41;4.33;;;1.57;;
6505;SDS011;3286;49.858;8.768;2023-11-21T00:31:08;2.97;;;1.60;;
6505;SDS011;3286;49.858;8.768;2023-11-21T00:33:34;2.23;;;1.53;;
6505;SDS011;3286;49.858;8.768;2023-11-21T00:36:01;3.77;;;1.40;;
6505;SDS011;3286;49.858;8.768;2023-11-21T00:38:28;2.73;;;1.37;;
6505;SDS011;3286;49.858;8.768;2023-11-21T00:40:55;2.57;;;1.37;;
6505;SDS011;3286;49.858;8.768;2023-11-21T00:43:23;7.57;;;1.63;;
6505;SDS011;3286;49.858;8.768;2023-11-21T00:45:49;2.97;;;1.20;;
6505;SDS011;3286;49.858;8.768;2023-11-21T00:48:16;2.10;;;0.93;;
6505;SDS011;3286;49.858;8.768;2023-11-21T00:50:43;2.37;;;1.20;;
6505;SDS011;3286;49.858;8.768;2023-11-21T00:53:10;2.90;;;1.07;;
6505;SDS011;3286;49.858;8.768;2023-11-21T00:55:37;3.33;;;0.90;;
6505;SDS011;3286;49.858;8.768;2023-11-21T00:58:05;1.10;;;0.73;;
6505;SDS011;3286;49.858;8.768;2023-11-21T01:00:33;2.10;;;0.90;;
6505;SDS011;3286;49.858;8.768;2023-11-21T01:03:00;1.03;;;0.87;;
6505;SDS011;3286;49.858;8.768;2023-11-21T01:05:27;1.87;;;0.90;;
6505;SDS011;3286;49.858;8.768;2023-11-21T01:07:54;1.23;;;0.90;;
6505;SDS011;3286;49.858;8.768;2023-11-21T01:10:21;1.10;;;0.90;;
6505;SDS011;3286;49.858;8.768;2023-11-21T01:12:48;1.07;;;0.80;;
6505;SDS011;3286;49.858;8.768;2023-11-21T01:15:14;2.63;;;0.90;;
6505;SDS011;3286;49.858;8.768;2023-11-21T01:17:42;0.93;;;0.70;;
6505;SDS011;3286;49.858;8.768;2023-11-21T01:20:09;0.77;;;0.77;;
6505;SDS011;3286;49.858;8.768;2023-11-21T01:22:37;1.33;;;0.97;;
6505;SDS011;3286;49.858;8.768;2023-11-21T01:25:05;1.37;;;1.00;;
6505;SDS011;3286;49.858;8.768;2023-11-21T01:27:32;2.83;;;0.80;;
6505;SDS011;3286;49.858;8.768;2023-11-21T01:29:59;1.37;;;0.67;;
6505;SDS011;3286;49.858;8.768;2023-11-21T01:32:26;1.13;;;0.80;;
6505;SDS011;3286;49.858;8.768;2023-11-21T01:34:55;1.83;;;0.90;;
6505;SDS011;3286;49.858;8.768;2023-11-21T01:37:21;0.97;;;0.87;;
6505;SDS011;3286;49.858;8.768;2023-11-21T01:39:48;1.87;;;0.90;;
6505;SDS011;3286;49.858;8.768;2023-11-21T01:42:15;1.63;;;0.83;;
6505;SDS011;3286;49.858;8.768;2023-11-21T01:44:42;3.90;;;0.83;;
6505;SDS011;3286;49.858;8.768;2023-11-21T01:47:08;3.07;;;0.73;;
6505;SDS011;3286;49.858;8.768;2023-11-21T01:49:36;1.50;;;0.93;;
6505;SDS011;3286;49.858;8.768;2023-11-21T01:52:05;0.70;;;0.70;;
6505;SDS011;3286;49.858;8.768;2023-11-21T01:54:33;1.00;;;0.90;;
6505;SDS011;3286;49.858;8.768;2023-11-21T01:57:02;1.33;;;1.00;;
6505;SDS011;3286;49.858;8.768;2023-11-21T01:59:33;2.43;;;1.00;;
6505;SDS011;3286;49.858;8.768;2023-11-21T02:02:01;1.17;;;0.80;;
6505;SDS011;3286;49.858;8.768;2023-11-21T02:04:30;1.53;;;1.10;;
6505;SDS011;3286;49.858;8.768;2023-11-21T02:06:56;2.20;;;1.13;;
6505;SDS011;3286;49.858;8.768;2023-11-21T02:09:25;1.70;;;0.90;;
6505;SDS011;3286;49.858;8.768;2023-11-21T02:11:52;2.20;;;1.00;;
6505;SDS011;3286;49.858;8.768;2023-11-21T02:14:20;3.07;;;1.17;;
6505;SDS011;3286;49.858;8.768;2023-11-21T02:16:47;1.13;;;1.00;;
6505;SDS011;3286;49.858;8.768;2023-11-21T02:19:14;2.30;;;1.03;;
6505;SDS011;3286;49.858;8.768;2023-11-21T02:21:45;1.47;;;1.10;;
6505;SDS011;3286;49.858;8.768;2023-11-21T02:24:14;3.30;;;1.10;;
6505;SDS011;3286;49.858;8.768;2023-11-21T02:26:42;1.10;;;1.00;;
6505;SDS011;3286;49.858;8.768;2023-11-21T02:29:09;2.30;;;1.23;;
6505;SDS011;3286;49.858;8.768;2023-11-21T02:31:37;2.17;;;1.20;;
6505;SDS011;3286;49.858;8.768;2023-11-21T02:34:12;3.73;;;1.40;;
6505;SDS011;3286;49.858;8.768;2023-11-21T02:36:39;2.70;;;1.60;;
6505;SDS011;3286;49.858;8.768;2023-11-21T02:39:07;1.63;;;1.53;;
6505;SDS011;3286;49.858;8.768;2023-11-21T02:41:35;1.70;;;1.40;;
6505;SDS011;3286;49.858;8.768;2023-11-21T02:44:03;3.67;;;1.80;;
6505;SDS011;3286;49.858;8.768;2023-11-21T02:46:31;2.00;;;1.60;;
6505;SDS011;3286;49.858;8.768;2023-11-21T02:48:58;1.60;;;1.50;;
6505;SDS011;3286;49.858;8.768;2023-11-21T02:51:25;3.33;;;1.60;;
6505;SDS011;3286;49.858;8.768;2023-11-21T02:53:52;1.60;;;1.50;;
6505;SDS011;3286;49.858;8.768;2023-11-21T02:56:19;4.30;;;1.87;;
6505;SDS011;3286;49.858;8.768;2023-11-21T02:58:47;2.23;;;1.47;;
6505;SDS011;3286;49.858;8.768;2023-11-21T03:01:14;2.07;;;1.70;;
6505;SDS011;3286;49.858;8.768;2023-11-21T03:03:40;2.77;;;1.73;;
6505;SDS011;3286;49.858;8.768;2023-11-21T03:06:07;2.13;;;1.70;;
6505;SDS011;3286;49.858;8.768;2023-11-21T03:08:34;1.50;;;1.40;;
6505;SDS011;3286;49.858;8.768;2023-11-21T03:11:00;4.77;;;2.00;;
6505;SDS011;3286;49.858;8.768;2023-11-21T03:13:29;2.83;;;1.77;;
6505;SDS011;3286;49.858;8.768;2023-11-21T03:15:57;3.63;;;1.63;;
6505;SDS011;3286;49.858;8.768;2023-11-21T03:18:23;3.53;;;1.70;;
6505;SDS011;3286;49.858;8.768;2023-11-21T03:20:51;1.80;;;1.57;;
6505;SDS011;3286;49.858;8.768;2023-11-21T03:23:18;2.63;;;1.60;;
6505;SDS011;3286;49.858;8.768;2023-11-21T03:25:45;1.93;;;1.53;;
6505;SDS011;3286;49.858;8.768;2023-11-21T03:28:12;1.40;;;1.30;;
6505;SDS011;3286;49.858;8.768;2023-11-21T03:30:39;3.10;;;1.90;;
6505;SDS011;3286;49.858;8.768;2023-11-21T03:33:07;1.73;;;1.63;;
6505;SDS011;3286;49.858;8.768;2023-11-21T03:35:34;1.93;;;1.77;;
6505;SDS011;3286;49.858;8.768;2023-11-21T03:38:00;3.43;;;1.93;;
6505;SDS011;3286;49.858;8.768;2023-11-21T03:40:27;2.03;;;1.80;;
6505;SDS011;3286;49.858;8.768;2023-11-21T03:42:53;3.93;;;1.83;;
6505;SDS011;3286;49.858;8.768;2023-11-21T03:45:20;2.90;;;2.10;;
6505;SDS011;3286;49.858;8.768;2023-11-21T03:47:47;5.43;;;2.10;;
6505;SDS011;3286;49.858;8.768;2023-11-21T03:50:15;2.67;;;1.70;;
6505;SDS011;3286;49.858;8.768;2023-11-21T03:52:41;3.10;;;2.00;;
6505;SDS011;3286;49.858;8.768;2023-11-21T03:55:08;3.00;;;1.83;;
6505;SDS011;3286;49.858;8.768;2023-11-21T03:57:36;8.33;;;2.07;;
6505;SDS011;3286;49.858;8.768;2023-11-21T04:00:03;2.10;;;1.90;;
6505;SDS011;3286;49.858;8.768;2023-11-21T04:02:33;7.03;;;2.00;;
6505;SDS011;3286;49.858;8.768;2023-11-21T04:05:00;2.80;;;1.83;;
6505;SDS011;3286;49.858;8.768;2023-11-21T04:07:28;3.93;;;2.53;;
6505;SDS011;3286;49.858;8.768;2023-11-21T04:09:55;4.23;;;2.13;;
6505;SDS011;3286;49.858;8.768;2023-11-21T04:12:21;1.73;;;1.63;;
6505;SDS011;3286;49.858;8.768;2023-11-21T04:14:48;3.97;;;1.97;;
6505;SDS011;3286;49.858;8.768;2023-11-21T04:17:17;3.07;;;2.10;;
6505;SDS011;3286;49.858;8.768;2023-11-21T04:19:44;2.30;;;2.10;;
6505;SDS011;3286;49.858;8.768;2023-11-21T04:22:11;2.60;;;2.10;;
6505;SDS011;3286;49.858;8.768;2023-11-21T04:24:39;2.60;;;2.00;;
6505;SDS011;3286;49.858;8.768;2023-11-21T04:27:05;2.10;;;1.70;;
6505;SDS011;3286;49.858;8.768;2023-11-21T04:29:32;2.43;;;2.00;;
6505;SDS011;3286;49.858;8.768;2023-11-21T04:32:00;2.33;;;1.97;;
6505;SDS011;3286;49.858;8.768;2023-11-21T04:34:27;1.97;;;1.77;;
6505;SDS011;3286;49.858;8.768;2023-11-21T04:36:55;4.87;;;2.33;;
6505;SDS011;3286;49.858;8.768;2023-11-21T04:39:22;2.60;;;2.00;;
6505;SDS011;3286;49.858;8.768;2023-11-21T04:41:50;2.40;;;2.20;;
6505;SDS011;3286;49.858;8.768;2023-11-21T04:44:17;2.00;;;1.80;;
6505;SDS011;3286;49.858;8.768;2023-11-21T04:46:43;3.33;;;2.57;;
6505;SDS011;3286;49.858;8.768;2023-11-21T04:49:10;3.50;;;2.37;;
6505;SDS011;3286;49.858;8.768;2023-11-21T04:51:37;3.10;;;2.30;;
6505;SDS011;3286;49.858;8.768;2023-11-21T04:54:04;3.43;;;2.27;;
6505;SDS011;3286;49.858;8.768;2023-11-21T04:56:31;5.40;;;2.23;;
6505;SDS011;3286;49.858;8.768;2023-11-21T04:58:59;5.77;;;2.60;;
6505;SDS011;3286;49.858;8.768;2023-11-21T05:01:25;4.93;;;2.43;;
6505;SDS011;3286;49.858;8.768;2023-11-21T05:03:52;3.23;;;2.30;;
6505;SDS011;3286;49.858;8.768;2023-11-21T05:06:19;3.03;;;2.43;;
6505;SDS011;3286;49.858;8.768;2023-11-21T05:08:45;4.10;;;2.40;;
6505;SDS011;3286;49.858;8.768;2023-11-21T05:11:15;3.03;;;2.50;;
6505;SDS011;3286;49.858;8.768;2023-11-21T05:13:49;4.63;;;2.37;;
6505;SDS011;3286;49.858;8.768;2023-11-21T05:16:18;4.97;;;3.50;;
6505;SDS011;3286;49.858;8.768;2023-11-21T05:18:45;4.43;;;2.40;;
6505;SDS011;3286;49.858;8.768;2023-11-21T05:21:11;4.60;;;2.50;;
6505;SDS011;3286;49.858;8.768;2023-11-21T05:23:38;3.17;;;2.23;;
6505;SDS011;3286;49.858;8.768;2023-11-21T05:26:05;2.00;;;1.80;;
6505;SDS011;3286;49.858;8.768;2023-11-21T05:28:32;2.80;;;2.27;;
6505;SDS011;3286;49.858;8.768;2023-11-21T05:30:59;3.13;;;2.47;;
6505;SDS011;3286;49.858;8.768;2023-11-21T05:33:28;2.23;;;2.00;;
6505;SDS011;3286;49.858;8.768;2023-11-21T05:35:54;3.40;;;2.10;;
6505;SDS011;3286;49.858;8.768;2023-11-21T05:38:21;2.23;;;2.00;;
6505;SDS011;3286;49.858;8.768;2023-11-21T05:40:48;2.23;;;1.70;;
6505;SDS011;3286;49.858;8.768;2023-11-21T05:43:14;1.67;;;1.57;;
6505;SDS011;3286;49.858;8.768;2023-11-21T05:45:41;1.73;;;1.53;;
6505;SDS011;3286;49.858;8.768;2023-11-21T05:48:08;1.03;;;0.93;;
6505;SDS011;3286;49.858;8.768;2023-11-21T05:50:36;1.20;;;1.13;;
6505;SDS011;3286;49.858;8.768;2023-11-21T05:53:03;1.70;;;1.03;;
6505;SDS011;3286;49.858;8.768;2023-11-21T05:55:30;0.80;;;0.80;;
6505;SDS011;3286;49.858;8.768;2023-11-21T05:57:56;0.80;;;0.80;;
6505;SDS011;3286;49.858;8.768;2023-11-21T06:00:22;0.83;;;0.80;;
6505;SDS011;3286;49.858;8.768;2023-11-21T06:02:51;1.90;;;0.60;;
6505;SDS011;3286;49.858;8.768;2023-11-21T06:05:19;2.37;;;0.70;;
6505;SDS011;3286;49.858;8.768;2023-11-21T06:07:49;0.80;;;0.80;;
6505;SDS011;3286;49.858;8.768;2023-11-21T06:10:16;1.47;;;0.77;;
6505;SDS011;3286;49.858;8.768;2023-11-21T06:12:44;0.50;;;0.50;;
6505;SDS011;3286;49.858;8.768;2023-11-21T06:15:11;1.77;;;1.20;;
6505;SDS011;3286;49.858;8.768;2023-11-21T06:17:39;1.50;;;1.40;;
6505;SDS011;3286;49.858;8.768;2023-11-21T06:20:07;3.23;;;1.50;;
6505;SDS011;3286;49.858;8.768;2023-11-21T06:22:39;1.50;;;1.40;;
6505;SDS011;3286;49.858;8.768;2023-11-21T06:25:08;1.60;;;1.50;;
6505;SDS011;3286;49.858;8.768;2023-11-21T06:27:36;2.50;;;1.67;;
6505;SDS011;3286;49.858;8.768;2023-11-21T06:30:05;2.17;;;1.70;;
6505;SDS011;3286;49.858;8.768;2023-11-21T06:32:34;1.97;;;1.80;;
6505;SDS011;3286;49.858;8.768;2023-11-21T06:35:01;2.23;;;1.60;;
6505;SDS011;3286;49.858;8.768;2023-11-21T06:37:29;1.93;;;1.70;;
6505;SDS011;3286;49.858;8.768;2023-11-21T06:39:56;2.13;;;1.85;;
6505;SDS011;3286;49.858;8.768;2023-11-21T06:42:24;3.83;;;1.83;;
6505;SDS011;3286;49.858;8.768;2023-11-21T06:44:51;2.03;;;1.67;;
6505;SDS011;3286;49.858;8.768;2023-11-21T06:47:18;2.80;;;1.70;;
6505;SDS011;3286;49.858;8.768;2023-11-21T06:49:45;2.40;;;1.90;;
6505;SDS011;3286;49.858;8.768;2023-11-21T06:52:14;25.10;;;2.83;;
6505;SDS011;3286;49.858;8.768;2023-11-21T06:54:40;1.77;;;1.60;;
6505;SDS011;3286;49.858;8.768;2023-11-21T06:57:07;3.83;;;1.80;;
6505;SDS011;3286;49.858;8.768;2023-11-21T06:59:35;2.33;;;1.97;;
6505;SDS011;3286;49.858;8.768;2023-11-21T07:02:02;2.27;;;1.90;;
6505;SDS011;3286;49.858;8.768;2023-11-21T07:04:29;5.93;;;1.80;;
6505;SDS011;3286;49.858;8.768;2023-11-21T07:06:56;1.57;;;1.40;;
6505;SDS011;3286;49.858;8.768;2023-11-21T07:09:23;1.83;;;1.53;;
6505;SDS011;3286;49.858;8.768;2023-11-21T07:11:50;2.93;;;1.50;;
6505;SDS011;3286;49.858;8.768;2023-11-21T07:14:17;1.67;;;1.30;;
6505;SDS011;3286;49.858;8.768;2023-11-21T07:16:46;3.53;;;1.80;;
6505;SDS011;3286;49.858;8.768;2023-11-21T07:19:13;2.23;;;1.93;;
6505;SDS011;3286;49.858;8.768;2023-11-21T07:21:40;1.60;;;1.50;;
6505;SDS011;3286;49.858;8.768;2023-11-21T07:24:07;2.00;;;1.70;;
6505;SDS011;3286;49.858;8.768;2023-11-21T07:26:35;45.67;;;9.13;;
6505;SDS011;3286;49.858;8.768;2023-11-21T07:29:02;3.47;;;2.47;;
6505;SDS011;3286;49.858;8.768;2023-11-21T07:31:29;8.70;;;2.43;;
6505;SDS011;3286;49.858;8.768;2023-11-21T07:33:57;2.20;;;1.90;;
6505;SDS011;3286;49.858;8.768;2023-11-21T07:36:24;2.63;;;2.20;;
6505;SDS011;3286;49.858;8.768;2023-11-21T07:38:51;4.20;;;2.17;;
6505;SDS011;3286;49.858;8.768;2023-11-21T07:41:18;7.87;;;2.67;;
6505;SDS011;3286;49.858;8.768;2023-11-21T07:43:46;2.40;;;2.20;;
6505;SDS011;3286;49.858;8.768;2023-11-21T07:46:13;2.47;;;2.27;;
6505;SDS011;3286;49.858;8.768;2023-11-21T07:48:40;4.43;;;2.43;;
6505;SDS011;3286;49.858;8.768;2023-11-21T07:51:09;3.67;;;2.40;;
6505;SDS011;3286;49.858;8.768;2023-11-21T07:53:38;3.33;;;2.60;;
6505;SDS011;3286;49.858;8.768;2023-11-21T07:56:05;3.13;;;2.50;;
6505;SDS011;3286;49.858;8.768;2023-11-21T07:58:33;7.50;;;4.70;;
6505;SDS011;3286;49.858;8.768;2023-11-21T08:01:00;18.43;;;8.47;;
6505;SDS011;3286;49.858;8.768;2023-11-21T08:03:27;19.77;;;11.07;;
6505;SDS011;3286;49.858;8.768;2023-11-21T08:05:55;8.00;;;5.73;;
6505;SDS011;3286;49.858;8.768;2023-11-21T08:08:24;7.33;;;4.70;;
6505;SDS011;3286;49.858;8.768;2023-11-21T08:10:50;6.37;;;4.23;;
6505;SDS011;3286;49.858;8.768;2023-11-21T08:13:21;6.93;;;4.60;;
6505;SDS011;3286;49.858;8.768;2023-11-21T08:15:48;6.33;;;4.87;;
6505;SDS011;3286;49.858;8.768;2023-11-21T08:18:14;6.37;;;4.43;;
6505;SDS011;3286;49.858;8.768;2023-11-21T08:20:42;6.83;;;4.80;;
6505;SDS011;3286;49.858;8.768;2023-11-21T08:23:12;7.73;;;4.70;;
6505;SDS011;3286;49.858;8.768;2023-11-21T08:25:41;6.93;;;4.77;;
6505;SDS011;3286;49.858;8.768;2023-11-21T08:28:08;5.20;;;3.83;;
6505;SDS011;3286;49.858;8.768;2023-11-21T08:30:35;6.07;;;4.80;;
6505;SDS011;3286;49.858;8.768;2023-11-21T08:33:02;6.37;;;4.20;;
6505;SDS011;3286;49.858;8.768;2023-11-21T08:35:29;5.77;;;4.17;;
6505;SDS011;3286;49.858;8.768;2023-11-21T08:37:56;7.57;;;4.37;;
6505;SDS011;3286;49.858;8.768;2023-11-21T08:40:22;7.33;;;3.80;;
6505;SDS011;3286;49.858;8.768;2023-11-21T08:42:51;6.27;;;3.90;;
6505;SDS011;3286;49.858;8.768;2023-11-21T08:45:18;6.53;;;3.97;;
6505;SDS011;3286;49.858;8.768;2023-11-21T08:47:46;5.17;;;3.77;;
6505;SDS011;3286;49.858;8.768;2023-11-21T08:50:12;6.87;;;3.90;;
6505;SDS011;3286;49.858;8.768;2023-11-21T08:52:40;5.60;;;3.60;;
6505;SDS011;3286;49.858;8.768;2023-11-21T08:55:07;7.57;;;4.53;;
6505;SDS011;3286;49.858;8.768;2023-11-21T08:57:34;9.13;;;4.80;;
6505;SDS011;3286;49.858;8.768;2023-11-21T09:00:03;9.70;;;4.60;;
6505;SDS011;3286;49.858;8.768;2023-11-21T09:02:33;8.27;;;4.93;;
6505;SDS011;3286;49.858;8.768;2023-11-21T09:05:00;6.50;;;4.87;;
6505;SDS011;3286;49.858;8.768;2023-11-21T09:07:28;8.03;;;4.80;;
6505;SDS011;3286;49.858;8.768;2023-11-21T09:09:55;12.27;;;5.30;;
6505;SDS011;3286;49.858;8.768;2023-11-21T09:12:21;9.17;;;4.97;;
6505;SDS011;3286;49.858;8.768;2023-11-21T09:14:49;8.20;;;4.97;;
6505;SDS011;3286;49.858;8.768;2023-11-21T09:17:18;9.60;;;5.17;;
6505;SDS011;3286;49.858;8.768;2023-11-21T09:19:44;6.80;;;4.80;;
6505;SDS011;3286;49.858;8.768;2023-11-21T09:22:15;6.60;;;4.57;;
6505;SDS011;3286;49.858;8.768;2023-11-21T09:24:42;9.80;;;4.77;;
6505;SDS011;3286;49.858;8.768;2023-11-21T09:27:09;9.33;;;4.60;;
6505;SDS011;3286;49.858;8.768;2023-11-21T09:29:36;8.67;;;4.90;;
6505;SDS011;3286;49.858;8.768;2023-11-21T09:32:03;6.37;;;4.17;;
6505;SDS011;3286;49.858;8.768;2023-11-21T09:34:32;5.70;;;4.37;;
6505;SDS011;3286;49.858;8.768;2023-11-21T09:37:01;5.57;;;4.20;;
6505;SDS011;3286;49.858;8.768;2023-11-21T09:39:30;10.50;;;4.40;;
6505;SDS011;3286;49.858;8.768;2023-11-21T09:41:59;4.27;;;3.40;;
6505;SDS011;3286;49.858;8.768;2023-11-21T09:44:36;10.93;;;3.83;;
6505;SDS011;3286;49.858;8.768;2023-11-21T09:47:10;8.87;;;3.60;;
6505;SDS011;3286;49.858;8.768;2023-11-21T09:49:42;4.80;;;3.47;;
6505;SDS011;3286;49.858;8.768;2023-11-21T09:52:15;7.60;;;3.40;;
6505;SDS011;3286;49.858;8.768;2023-11-21T09:54:50;3.90;;;3.07;;
6505;SDS011;3286;49.858;8.768;2023-11-21T09:57:19;7.03;;;3.23;;
6505;SDS011;3286;49.858;8.768;2023-11-21T09:59:46;5.10;;;2.90;;
6505;SDS011;3286;49.858;8.768;2023-11-21T10:02:16;6.20;;;3.07;;
6505;SDS011;3286;49.858;8.768;2023-11-21T10:04:46;4.93;;;3.00;;
6505;SDS011;3286;49.858;8.768;2023-11-21T10:07:13;6.40;;;3.07;;
6505;SDS011;3286;49.858;8.768;2023-11-21T10:09:43;5.57;;;2.97;;
6505;SDS011;3286;49.858;8.768;2023-11-21T10:12:11;7.73;;;3.20;;
6505;SDS011;3286;49.858;8.768;2023-11-21T10:14:40;3.77;;;2.87;;
6505;SDS011;3286;49.858;8.768;2023-11-21T10:17:09;8.70;;;3.60;;
6505;SDS011;3286;49.858;8.768;2023-11-21T10:19:37;5.07;;;3.07;;
6505;SDS011;3286;49.858;8.768;2023-11-21T10:22:06;4.07;;;3.00;;
6505;SDS011;3286;49.858;8.768;2023-11-21T10:24:33;3.87;;;3.20;;
6505;SDS011;3286;49.858;8.768;2023-11-21T10:27:00;4.53;;;3.40;;
6505;SDS011;3286;49.858;8.768;2023-11-21T10:29:28;5.50;;;3.30;;
6505;SDS011;3286;49.858;8.768;2023-11-21T10:32:00;4.53;;;3.40;;
6505;SDS011;3286;49.858;8.768;2023-11-21T10:34:28;9.93;;;3.30;;
6505;SDS011;3286;49.858;8.768;2023-11-21T10:36:55;6.13;;;3.13;;
6505;SDS011;3286;49.858;8.768;2023-11-21T10:39:24;7.33;;;4.17;;
6505;SDS011;3286;49.858;8.768;2023-11-21T10:41:55;5.63;;;3.07;;
6505;SDS011;3286;49.858;8.768;2023-11-21T10:44:22;5.50;;;3.53;;
6505;SDS011;3286;49.858;8.768;2023-11-21T10:46:49;4.83;;;3.17;;
6505;SDS011;3286;49.858;8.768;2023-11-21T10:49:17;4.37;;;3.07;;
6505;SDS011;3286;49.858;8.768;2023-11-21T10:51:44;4.20;;;3.03;;
6505;SDS011;3286;49.858;8.768;2023-11-21T10:54:16;9.67;;;3.50;;
6505;SDS011;3286;49.858;8.768;2023-11-21T10:56:45;4.73;;;2.90;;
6505;SDS011;3286;49.858;8.768;2023-11-21T10:59:12;3.40;;;2.70;;
6505;SDS011;3286;49.858;8.768;2023-11-21T11:01:41;4.37;;;2.90;;
6505;SDS011;3286;49.858;8.768;2023-11-21T11:04:11;9.60;;;2.63;;
6505;SDS011;3286;49.858;8.768;2023-11-21T11:06:41;5.40;;;3.00;;
6505;SDS011;3286;49.858;8.768;2023-11-21T11:09:09;5.83;;;3.03;;
6505;SDS011;3286;49.858;8.768;2023-11-21T11:11:39;3.50;;;2.80;;
6505;SDS011;3286;49.858;8.768;2023-11-21T11:14:08;4.53;;;3.00;;
6505;SDS011;3286;49.858;8.768;2023-11-21T11:16:37;9.20;;;3.30;;
6505;SDS011;3286;49.858;8.768;2023-11-21T11:19:06;5.63;;;3.13;;
6505;SDS011;3286;49.858;8.768;2023-11-21T11:21:36;6.77;;;3.40;;
6505;SDS011;3286;49.858;8.768;2023-11-21T11:24:17;4.60;;;3.03;;
6505;SDS011;3286;49.858;8.768;2023-11-21T11:27:01;5.97;;;3.17;;
6505;SDS011;3286;49.858;8.768;2023-11-21T11:29:41;4.00;;;2.60;;
6505;SDS011;3286;49.858;8.768;2023-11-21T11:32:16;4.00;;;2.53;;
6505;SDS011;3286;49.858;8.768;2023-11-21T11:34:54;4.80;;;2.87;;
6505;SDS011;3286;49.858;8.768;2023-11-21T11:37:27;5.47;;;3.20;;
6505;SDS011;3286;49.858;8.768;2023-11-21T11:39:54;5.17;;;2.57;;
6505;SDS011;3286;49.858;8.768;2023-11-21T11:42:22;4.03;;;2.50;;
6505;SDS011;3286;49.858;8.768;2023-11-21T11:47:24;5.00;;;2.27;;
6505;SDS011;3286;49.858;8.768;2023-11-21T11:52:42;5.33;;;2.30;;
6505;SDS011;3286;49.858;8.768;2023-11-21T11:55:10;3.47;;;2.00;;
6505;SDS011;3286;49.858;8.768;2023-11-21T11:57:38;3.63;;;2.00;;
6505;SDS011;3286;49.858;8.768;2023-11-21T12:00:10;4.40;;;2.07;;
6505;SDS011;3286;49.858;8.768;2023-11-21T12:02:44;4.57;;;2.05;;
6505;SDS011;3286;49.858;8.768;2023-11-21T12:05:12;6.30;;;2.17;;
6505;SDS011;3286;49.858;8.768;2023-11-21T12:07:47;2.27;;;1.87;;
6505;SDS011;3286;49.858;8.768;2023-11-21T12:10:15;3.37;;;2.23;;
6505;SDS011;3286;49.858;8.768;2023-11-21T12:12:47;3.87;;;1.90;;
6505;SDS011;3286;49.858;8.768;2023-11-21T12:15:16;4.37;;;2.10;;
6505;SDS011;3286;49.858;8.768;2023-11-21T12:17:44;4.80;;;1.73;;
6505;SDS011;3286;49.858;8.768;2023-11-21T12:20:13;4.20;;;2.00;;
6505;SDS011;3286;49.858;8.768;2023-11-21T12:22:43;3.47;;;1.90;;
6505;SDS011;3286;49.858;8.768;2023-11-21T12:25:12;4.63;;;1.90;;
6505;SDS011;3286;49.858;8.768;2023-11-21T12:27:41;2.23;;;1.70;;
6505;SDS011;3286;49.858;8.768;2023-11-21T12:30:10;3.70;;;2.27;;
6505;SDS011;3286;49.858;8.768;2023-11-21T12:32:42;9.20;;;3.03;;
6505;SDS011;3286;49.858;8.768;2023-11-21T12:35:11;6.07;;;2.77;;
6505;SDS011;3286;49.858;8.768;2023-11-21T12:37:38;5.50;;;2.33;;
6505;SDS011;3286;49.858;8.768;2023-11-21T12:40:08;6.27;;;2.77;;
6505;SDS011;3286;49.858;8.768;2023-11-21T12:42:37;5.40;;;2.70;;
6505;SDS011;3286;49.858;8.768;2023-11-21T12:45:07;4.13;;;2.60;;
6505;SDS011;3286;49.858;8.768;2023-11-21T12:47:39;6.13;;;2.87;;
6505;SDS011;3286;49.858;8.768;2023-11-21T12:50:08;5.60;;;2.10;;
6505;SDS011;3286;49.858;8.768;2023-11-21T12:52:39;7.07;;;2.70;;
6505;SDS011;3286;49.858;8.768;2023-11-21T12:55:09;3.73;;;2.60;;
6505;SDS011;3286;49.858;8.768;2023-11-21T12:57:40;7.37;;;2.73;;
6505;SDS011;3286;49.858;8.768;2023-11-21T13:00:08;7.73;;;3.03;;
6505;SDS011;3286;49.858;8.768;2023-11-21T13:02:42;3.30;;;2.30;;
6505;SDS011;3286;49.858;8.768;2023-11-21T13:05:08;5.90;;;2.80;;
6505;SDS011;3286;49.858;8.768;2023-11-21T13:07:46;5.13;;;3.00;;
6505;SDS011;3286;49.858;8.768;2023-11-21T13:10:14;6.23;;;2.87;;
6505;SDS011;3286;49.858;8.768;2023-11-21T13:12:42;4.47;;;2.47;;
6505;SDS011;3286;49.858;8.768;2023-11-21T13:15:13;7.23;;;2.80;;
6505;SDS011;3286;49.858;8.768;2023-11-21T13:17:44;20.53;;;5.50;;
6505;SDS011;3286;49.858;8.768;2023-11-21T13:20:11;6.67;;;3.10;;
6505;SDS011;3286;49.858;8.768;2023-11-21T13:22:45;4.97;;;2.47;;
6505;SDS011;3286;49.858;8.768;2023-11-21T13:25:14;9.33;;;3.13;;
6505;SDS011;3286;49.858;8.768;2023-11-21T13:27:42;4.90;;;3.03;;
6505;SDS011;3286;49.858;8.768;2023-11-21T13:30:11;6.60;;;3.57;;
6505;SDS011;3286;49.858;8.768;2023-11-21T13:32:41;5.43;;;2.60;;
6505;SDS011;3286;49.858;8.768;2023-11-21T13:35:11;7.77;;;3.10;;
6505;SDS011;3286;49.858;8.768;2023-11-21T13:37:46;9.23;;;3.43;;
6505;SDS011;3286;49.858;8.768;2023-11-21T13:40:16;5.83;;;3.23;;
6505;SDS011;3286;49.858;8.768;2023-11-21T13:42:47;7.67;;;3.40;;
6505;SDS011;3286;49.858;8.768;2023-11-21T13:45:18;7.10;;;3.27;;
6505;SDS011;3286;49.858;8.768;2023-11-21T13:47:48;7.70;;;3.63;;
6505;SDS011;3286;49.858;8.768;2023-11-21T13:50:16;6.70;;;3.13;;
6505;SDS011;3286;49.858;8.768;2023-11-21T13:52:47;6.13;;;3.03;;
6505;SDS011;3286;49.858;8.768;2023-11-21T13:55:16;6.40;;;3.17;;
6505;SDS011;3286;49.858;8.768;2023-11-21T13:57:43;6.77;;;3.20;;
6505;SDS011;3286;49.858;8.768;2023-11-21T14:00:14;10.50;;;3.43;;
6505;SDS011;3286;49.858;8.768;2023-11-21T14:03:04;4.43;;;3.40;;
6505;SDS011;3286;49.858;8.768;2023-11-21T14:05:36;4.13;;;3.13;;
6505;SDS011;3286;49.858;8.768;2023-11-21T14:08:04;5.57;;;3.73;;
6505;SDS011;3286;49.858;8.768;2023-11-21T14:10:31;9.33;;;3.80;;
6505;SDS011;3286;49.858;8.768;2023-11-21T14:13:05;9.30;;;3.33;;
6505;SDS011;3286;49.858;8.768;2023-11-21T14:15:32;6.33;;;3.60;;
6505;SDS011;3286;49.858;8.768;2023-11-21T14:18:05;6.27;;;2.90;;
6505;SDS011;3286;49.858;8.768;2023-11-21T14:20:35;10.50;;;3.17;;
6505;SDS011;3286;49.858;8.768;2023-11-21T14:23:02;5.90;;;3.20;;
6505;SDS011;3286;49.858;8.768;2023-11-21T14:25:29;10.30;;;3.57;;
6505;SDS011;3286;49.858;8.768;2023-11-21T14:27:59;4.87;;;2.93;;
6505;SDS011;3286;49.858;8.768;2023-11-21T14:30:28;10.40;;;3.20;;
6505;SDS011;3286;49.858;8.768;2023-11-21T14:32:57;3.93;;;2.90;;
6505;SDS011;3286;49.858;8.768;2023-11-21T14:35:25;3.70;;;2.70;;
6505;SDS011;3286;49.858;8.768;2023-11-21T14:37:52;4.90;;;2.70;;
6505;SDS011;3286;49.858;8.768;2023-11-21T14:40:20;4.73;;;2.30;;
6505;SDS011;3286;49.858;8.768;2023-11-21T14:42:49;6.27;;;3.00;;
6505;SDS011;3286;49.858;8.768;2023-11-21T14:45:18;4.00;;;2.30;;
6505;SDS011;3286;49.858;8.768;2023-11-21T14:47:45;5.23;;;2.57;;
6505;SDS011;3286;49.858;8.768;2023-11-21T14:50:19;8.60;;;3.17;;
6505;SDS011;3286;49.858;8.768;2023-11-21T14:53:07;6.93;;;3.23;;
6505;SDS011;3286;49.858;8.768;2023-11-21T14:55:35;5.33;;;2.97;;
6505;SDS011;3286;49.858;8.768;2023-11-21T14:58:17;3.33;;;2.70;;
6505;SDS011;3286;49.858;8.768;2023-11-21T15:00:48;8.70;;;3.40;;
6505;SDS011;3286;49.858;8.768;2023-11-21T15:03:16;5.87;;;3.00;;
6505;SDS011;3286;49.858;8.768;2023-11-21T15:06:04;6.57;;;2.83;;
6505;SDS011;3286;49.858;8.768;2023-11-21T15:08:48;7.87;;;2.90;;
6505;SDS011;3286;49.858;8.768;2023-11-21T15:11:19;6.50;;;2.97;;
6505;SDS011;3286;49.858;8.768;2023-11-21T15:13:50;7.23;;;3.53;;
6505;SDS011;3286;49.858;8.768;2023-11-21T15:16:18;6.90;;;2.80;;
6505;SDS011;3286;49.858;8.768;2023-11-21T15:18:45;4.90;;;3.20;;
6505;SDS011;3286;49.858;8.768;2023-11-21T15:21:12;6.87;;;3.00;;
6505;SDS011;3286;49.858;8.768;2023-11-21T15:23:38;28.20;;;6.17;;
6505;SDS011;3286;49.858;8.768;2023-11-21T15:26:08;5.20;;;3.33;;
6505;SDS011;3286;49.858;8.768;2023-11-21T15:28:35;6.50;;;3.57;;